PWSweather.com
Personal Weather Stations
Station Observations
KTXRICHA120
Richardson, TX

Richardson, TX

Lat: 32.99476242, Lon: -96.73544312

Elevation: 679

Station Type:

Latest ConditionsUpdated 6:34:00 AM CDT Wednesday, Jul 17, 2019
Currently Today's Max Today's Min Today's Average
Temperature 77.9°F25.5°C 86.4°F30.2°C 77.9°F25.5°C 81.8°F27.7°C
Dew Point 72.7°F22.6°C 75.0°F23.9°C 72.3°F22.4°C 73.8°F23.2°C
Winds 2.9 mph SW4.7 kmh SW 5.6 mph -9.0 kmh - - 1.9 mph 3.1 kmh
Wind Gusts 3.4 mph5.5 kmh 8.1 mph13.0 kmh - -
Humidity 84% 84% 68% 77%
Pressure 29.29 in991.9 mb 29.30 in992.2 mb 29.25 in990.5 mb -
Hour Temp Dew Point Humidity Winds Wind Gusts Pressure Precip Precip Rate Daily Precip Total
06:34 AM 77.9°F25.5°C 72.7°F22.6°C 84% 2.9 mph SW4.7 kmh SW 3.4 mph5.5 kmh 29.29 in991.9 mb 0.00 in0.0 mm 0.00 in0.0 mm 0.00 in0.0 mm
06:29 AM 77.9°F25.5°C 72.7°F22.6°C 84% 1.6 mph SW2.6 kmh SW 2.2 mph3.5 kmh 29.29 in991.9 mb 0.00 in0.0 mm 0.00 in0.0 mm 0.00 in0.0 mm
06:24 AM 77.9°F25.5°C 72.7°F22.6°C 84% 2.0 mph SW3.2 kmh SW 3.4 mph5.5 kmh 29.30 in992.2 mb 0.00 in0.0 mm 0.00 in0.0 mm 0.00 in0.0 mm
06:19 AM 78.1°F25.6°C 72.5°F22.5°C 83% 1.6 mph SW2.6 kmh SW 2.2 mph3.5 kmh 29.30 in992.2 mb 0.00 in0.0 mm 0.00 in0.0 mm 0.00 in0.0 mm
06:14 AM 78.1°F25.6°C 72.5°F22.5°C 83% 1.8 mph SW2.9 kmh SW 2.2 mph3.5 kmh 29.30 in992.2 mb 0.00 in0.0 mm 0.00 in0.0 mm 0.00 in0.0 mm
06:09 AM 78.3°F25.7°C 72.3°F22.4°C 82% 1.1 mph SW1.8 kmh SW 2.2 mph3.5 kmh 29.29 in991.9 mb 0.00 in0.0 mm 0.00 in0.0 mm 0.00 in0.0 mm
06:04 AM 78.6°F25.9°C 72.3°F22.4°C 81% 1.3 mph SW2.1 kmh SW 2.2 mph3.5 kmh 29.29 in991.9 mb 0.00 in0.0 mm 0.00 in0.0 mm 0.00 in0.0 mm
05:59 AM 78.6°F25.9°C 72.3°F22.4°C 81% 0.7 mph SW1.1 kmh SW 1.1 mph1.8 kmh 29.29 in991.9 mb 0.00 in0.0 mm 0.00 in0.0 mm 0.00 in0.0 mm
05:54 AM 78.6°F25.9°C 72.3°F22.4°C 81% Calm Calm -- 29.29 in991.9 mb 0.00 in0.0 mm 0.00 in0.0 mm 0.00 in0.0 mm
05:49 AM 78.8°F26.0°C 72.5°F22.5°C 81% 0.4 mph SW0.6 kmh SW 1.1 mph1.8 kmh 29.29 in991.9 mb 0.00 in0.0 mm 0.00 in0.0 mm 0.00 in0.0 mm
05:44 AM 78.8°F26.0°C 72.5°F22.5°C 81% 1.8 mph SW2.9 kmh SW 2.2 mph3.5 kmh 29.29 in991.9 mb 0.00 in0.0 mm 0.00 in0.0 mm 0.00 in0.0 mm
05:39 AM 78.8°F26.0°C 72.5°F22.5°C 81% 4.0 mph SW6.4 kmh SW 4.5 mph7.2 kmh 29.29 in991.9 mb 0.00 in0.0 mm 0.00 in0.0 mm 0.00 in0.0 mm
05:34 AM 79.0°F26.1°C 72.7°F22.6°C 81% 3.1 mph SW5.0 kmh SW 5.8 mph9.3 kmh 29.29 in991.9 mb 0.00 in0.0 mm 0.00 in0.0 mm 0.00 in0.0 mm
05:29 AM 79.2°F26.2°C 72.9°F22.7°C 81% 1.3 mph SW2.1 kmh SW 2.2 mph3.5 kmh 29.28 in991.5 mb 0.00 in0.0 mm 0.00 in0.0 mm 0.00 in0.0 mm
05:24 AM 79.2°F26.2°C 72.9°F22.7°C 81% 0.4 mph SW0.6 kmh SW 1.1 mph1.8 kmh 29.27 in991.2 mb 0.00 in0.0 mm 0.00 in0.0 mm 0.00 in0.0 mm
05:19 AM 79.3°F26.3°C 73.0°F22.8°C 81% 2.7 mph SW4.3 kmh SW 3.4 mph5.5 kmh 29.28 in991.5 mb 0.00 in0.0 mm 0.00 in0.0 mm 0.00 in0.0 mm
05:14 AM 79.3°F26.3°C 73.0°F22.8°C 81% 0.7 mph SW1.1 kmh SW 1.1 mph1.8 kmh 29.28 in991.5 mb 0.00 in0.0 mm 0.00 in0.0 mm 0.00 in0.0 mm
05:09 AM 79.3°F26.3°C 73.0°F22.8°C 81% 2.0 mph SW3.2 kmh SW 2.2 mph3.5 kmh 29.28 in991.5 mb 0.00 in0.0 mm 0.00 in0.0 mm 0.00 in0.0 mm
05:04 AM 79.5°F26.4°C 73.2°F22.9°C 81% 1.1 mph SW1.8 kmh SW 1.1 mph1.8 kmh 29.27 in991.2 mb 0.00 in0.0 mm 0.00 in0.0 mm 0.00 in0.0 mm
04:59 AM 79.5°F26.4°C 73.2°F22.9°C 81% 1.3 mph SW2.1 kmh SW 2.2 mph3.5 kmh 29.28 in991.5 mb 0.00 in0.0 mm 0.00 in0.0 mm 0.00 in0.0 mm
04:54 AM 79.5°F26.4°C 73.2°F22.9°C 81% 1.1 mph SW1.8 kmh SW 2.2 mph3.5 kmh 29.28 in991.5 mb 0.00 in0.0 mm 0.00 in0.0 mm 0.00 in0.0 mm
04:49 AM 79.7°F26.5°C 73.4°F23.0°C 81% 1.6 mph SW2.6 kmh SW 2.2 mph3.5 kmh 29.28 in991.5 mb 0.00 in0.0 mm 0.00 in0.0 mm 0.00 in0.0 mm
04:44 AM 80.1°F26.7°C 73.4°F23.0°C 80% 1.3 mph SW2.1 kmh SW 2.2 mph3.5 kmh 29.27 in991.2 mb 0.00 in0.0 mm 0.00 in0.0 mm 0.00 in0.0 mm
04:39 AM 80.1°F26.7°C 73.4°F23.0°C 80% 0.9 mph SSW1.4 kmh SSW 1.1 mph1.8 kmh 29.27 in991.2 mb 0.00 in0.0 mm 0.00 in0.0 mm 0.00 in0.0 mm
04:34 AM 80.2°F26.8°C 73.6°F23.1°C 80% 0.2 mph SW0.3 kmh SW 1.1 mph1.8 kmh 29.28 in991.5 mb 0.00 in0.0 mm 0.00 in0.0 mm 0.00 in0.0 mm
04:29 AM 80.4°F26.9°C 73.8°F23.2°C 80% 0.9 mph WSW1.4 kmh WSW 2.2 mph3.5 kmh 29.27 in991.2 mb 0.00 in0.0 mm 0.00 in0.0 mm 0.00 in0.0 mm
04:24 AM 80.6°F27.0°C 73.6°F23.1°C 79% 1.6 mph SW2.6 kmh SW 2.2 mph3.5 kmh 29.27 in991.2 mb 0.00 in0.0 mm 0.00 in0.0 mm 0.00 in0.0 mm
04:19 AM 80.6°F27.0°C 73.6°F23.1°C 79% 1.6 mph SW2.6 kmh SW 2.2 mph3.5 kmh 29.27 in991.2 mb 0.00 in0.0 mm 0.00 in0.0 mm 0.00 in0.0 mm
04:14 AM 80.8°F27.1°C 73.8°F23.2°C 79% 1.3 mph SW2.1 kmh SW 2.2 mph3.5 kmh 29.27 in991.2 mb 0.00 in0.0 mm 0.00 in0.0 mm 0.00 in0.0 mm
04:09 AM 81.0°F27.2°C 73.9°F23.3°C 79% 2.2 mph SW3.5 kmh SW 3.4 mph5.5 kmh 29.27 in991.2 mb 0.00 in0.0 mm 0.00 in0.0 mm 0.00 in0.0 mm
04:04 AM 81.0°F27.2°C 73.4°F23.0°C 78% 2.5 mph SW4.0 kmh SW 3.4 mph5.5 kmh 29.27 in991.2 mb 0.00 in0.0 mm 0.00 in0.0 mm 0.00 in0.0 mm
03:59 AM 81.0°F27.2°C 73.4°F23.0°C 78% 2.2 mph SW3.5 kmh SW 3.4 mph5.5 kmh 29.27 in991.2 mb 0.00 in0.0 mm 0.00 in0.0 mm 0.00 in0.0 mm
03:54 AM 81.3°F27.4°C 73.8°F23.2°C 78% 1.8 mph SW2.9 kmh SW 2.2 mph3.5 kmh 29.26 in990.9 mb 0.00 in0.0 mm 0.00 in0.0 mm 0.00 in0.0 mm
03:49 AM 81.3°F27.4°C 73.8°F23.2°C 78% 2.7 mph SW4.3 kmh SW 3.4 mph5.5 kmh 29.27 in991.2 mb 0.00 in0.0 mm 0.00 in0.0 mm 0.00 in0.0 mm
03:44 AM 81.3°F27.4°C 73.4°F23.0°C 77% 2.7 mph WSW4.3 kmh WSW 3.4 mph5.5 kmh 29.27 in991.2 mb 0.00 in0.0 mm 0.00 in0.0 mm 0.00 in0.0 mm
03:39 AM 81.3°F27.4°C 73.8°F23.2°C 78% 2.0 mph SW3.2 kmh SW 2.2 mph3.5 kmh 29.26 in990.9 mb 0.00 in0.0 mm 0.00 in0.0 mm 0.00 in0.0 mm
03:34 AM 81.5°F27.5°C 73.9°F23.3°C 78% 1.3 mph SW2.1 kmh SW 2.2 mph3.5 kmh 29.27 in991.2 mb 0.00 in0.0 mm 0.00 in0.0 mm 0.00 in0.0 mm
03:29 AM 81.7°F27.6°C 73.8°F23.2°C 77% 2.2 mph SW3.5 kmh SW 2.2 mph3.5 kmh 29.26 in990.9 mb 0.00 in0.0 mm 0.00 in0.0 mm 0.00 in0.0 mm
03:24 AM 81.7°F27.6°C 73.8°F23.2°C 77% 2.9 mph SW4.7 kmh SW 4.5 mph7.2 kmh 29.26 in990.9 mb 0.00 in0.0 mm 0.00 in0.0 mm 0.00 in0.0 mm
03:19 AM 81.9°F27.7°C 73.9°F23.3°C 77% 0.9 mph SW1.4 kmh SW 1.1 mph1.8 kmh 29.27 in991.2 mb 0.00 in0.0 mm 0.00 in0.0 mm 0.00 in0.0 mm
03:14 AM 82.0°F27.8°C 74.1°F23.4°C 77% 1.8 mph SW2.9 kmh SW 2.2 mph3.5 kmh 29.26 in990.9 mb 0.00 in0.0 mm 0.00 in0.0 mm 0.00 in0.0 mm
03:09 AM 82.0°F27.8°C 74.1°F23.4°C 77% 2.0 mph SW3.2 kmh SW 3.4 mph5.5 kmh 29.26 in990.9 mb 0.00 in0.0 mm 0.00 in0.0 mm 0.00 in0.0 mm
03:04 AM 82.2°F27.9°C 74.3°F23.5°C 77% 1.3 mph SW2.1 kmh SW 2.2 mph3.5 kmh 29.26 in990.9 mb 0.00 in0.0 mm 0.00 in0.0 mm 0.00 in0.0 mm
02:59 AM 82.2°F27.9°C 74.3°F23.5°C 77% 2.0 mph SW3.2 kmh SW 3.4 mph5.5 kmh 29.26 in990.9 mb 0.00 in0.0 mm 0.00 in0.0 mm 0.00 in0.0 mm
02:54 AM 82.2°F27.9°C 74.3°F23.5°C 77% 2.0 mph SW3.2 kmh SW 3.4 mph5.5 kmh 29.26 in990.9 mb 0.00 in0.0 mm 0.00 in0.0 mm 0.00 in0.0 mm
02:49 AM 82.2°F27.9°C 74.3°F23.5°C 77% 2.5 mph SW4.0 kmh SW 3.4 mph5.5 kmh 29.26 in990.9 mb 0.00 in0.0 mm 0.00 in0.0 mm 0.00 in0.0 mm
02:44 AM 82.4°F28.0°C 74.5°F23.6°C 77% Calm Calm -- 29.27 in991.2 mb 0.00 in0.0 mm 0.00 in0.0 mm 0.00 in0.0 mm
02:39 AM 82.4°F28.0°C 74.1°F23.4°C 76% 0.9 mph SW1.4 kmh SW 1.1 mph1.8 kmh 29.27 in991.2 mb 0.00 in0.0 mm 0.00 in0.0 mm 0.00 in0.0 mm
02:34 AM 82.6°F28.1°C 74.7°F23.7°C 77% 1.1 mph SW1.8 kmh SW 1.1 mph1.8 kmh 29.26 in990.9 mb 0.00 in0.0 mm 0.00 in0.0 mm 0.00 in0.0 mm
02:29 AM 82.8°F28.2°C 74.5°F23.6°C 76% 1.1 mph SW1.8 kmh SW 2.2 mph3.5 kmh 29.26 in990.9 mb 0.00 in0.0 mm 0.00 in0.0 mm 0.00 in0.0 mm
02:24 AM 82.9°F28.3°C 74.3°F23.5°C 75% 0.4 mph SW0.6 kmh SW 1.1 mph1.8 kmh 29.26 in990.9 mb 0.00 in0.0 mm 0.00 in0.0 mm 0.00 in0.0 mm
02:19 AM 82.9°F28.3°C 74.3°F23.5°C 75% 2.7 mph SSW4.3 kmh SSW 3.4 mph5.5 kmh 29.26 in990.9 mb 0.00 in0.0 mm 0.00 in0.0 mm 0.00 in0.0 mm
02:14 AM 82.9°F28.3°C 74.3°F23.5°C 75% 1.8 mph SW2.9 kmh SW 3.4 mph5.5 kmh 29.27 in991.2 mb 0.00 in0.0 mm 0.00 in0.0 mm 0.00 in0.0 mm
02:09 AM 83.1°F28.4°C 74.5°F23.6°C 75% 3.8 mph SW6.1 kmh SW 4.5 mph7.2 kmh 29.27 in991.2 mb 0.00 in0.0 mm 0.00 in0.0 mm 0.00 in0.0 mm
02:04 AM 83.3°F28.5°C 74.7°F23.7°C 75% 1.6 mph SW2.6 kmh SW 2.2 mph3.5 kmh 29.26 in990.9 mb 0.00 in0.0 mm 0.00 in0.0 mm 0.00 in0.0 mm
01:59 AM 83.3°F28.5°C 74.7°F23.7°C 75% 2.9 mph SW4.7 kmh SW 3.4 mph5.5 kmh 29.26 in990.9 mb 0.00 in0.0 mm 0.00 in0.0 mm 0.00 in0.0 mm
01:54 AM 83.3°F28.5°C 74.7°F23.7°C 75% 1.8 mph S2.9 kmh S 3.4 mph5.5 kmh 29.26 in990.9 mb 0.00 in0.0 mm 0.00 in0.0 mm 0.00 in0.0 mm
01:49 AM 83.7°F28.7°C 74.5°F23.6°C 74% 2.5 mph SW4.0 kmh SW 3.4 mph5.5 kmh 29.26 in990.9 mb 0.00 in0.0 mm 0.00 in0.0 mm 0.00 in0.0 mm
01:44 AM 83.8°F28.8°C 74.7°F23.7°C 74% 4.3 mph WSW6.9 kmh WSW 6.9 mph11.1 kmh 29.26 in990.9 mb 0.00 in0.0 mm 0.00 in0.0 mm 0.00 in0.0 mm
01:39 AM 83.7°F28.7°C 74.5°F23.6°C 74% 3.1 mph SW5.0 kmh SW 4.5 mph7.2 kmh 29.26 in990.9 mb 0.00 in0.0 mm 0.00 in0.0 mm 0.00 in0.0 mm
01:34 AM 84.0°F28.9°C 74.8°F23.8°C 74% 1.3 mph SSW2.1 kmh SSW 3.4 mph5.5 kmh 29.26 in990.9 mb 0.00 in0.0 mm 0.00 in0.0 mm 0.00 in0.0 mm
01:29 AM 84.2°F29.0°C 74.7°F23.7°C 73% 2.0 mph SW3.2 kmh SW 2.2 mph3.5 kmh 29.25 in990.5 mb 0.00 in0.0 mm 0.00 in0.0 mm 0.00 in0.0 mm
01:24 AM 84.0°F28.9°C 74.5°F23.6°C 73% 2.7 mph NNE4.3 kmh NNE 3.4 mph5.5 kmh 29.26 in990.9 mb 0.00 in0.0 mm 0.00 in0.0 mm 0.00 in0.0 mm
01:19 AM 84.2°F29.0°C 74.7°F23.7°C 73% 3.1 mph WSW5.0 kmh WSW 5.8 mph9.3 kmh 29.26 in990.9 mb 0.00 in0.0 mm 0.00 in0.0 mm 0.00 in0.0 mm
01:14 AM 84.4°F29.1°C 74.3°F23.5°C 72% 1.1 mph SW1.8 kmh SW 2.2 mph3.5 kmh 29.26 in990.9 mb 0.00 in0.0 mm 0.00 in0.0 mm 0.00 in0.0 mm
01:09 AM 84.4°F29.1°C 74.3°F23.5°C 72% 2.2 mph SW3.5 kmh SW 3.4 mph5.5 kmh 29.26 in990.9 mb 0.00 in0.0 mm 0.00 in0.0 mm 0.00 in0.0 mm
01:04 AM 84.7°F29.3°C 74.3°F23.5°C 71% 2.5 mph SSW4.0 kmh SSW 3.4 mph5.5 kmh 29.26 in990.9 mb 0.00 in0.0 mm 0.00 in0.0 mm 0.00 in0.0 mm
12:59 AM 84.7°F29.3°C 74.3°F23.5°C 71% 2.5 mph SW4.0 kmh SW 4.5 mph7.2 kmh 29.26 in990.9 mb 0.00 in0.0 mm 0.00 in0.0 mm 0.00 in0.0 mm
12:54 AM 84.7°F29.3°C 74.3°F23.5°C 71% 5.1 mph SW8.2 kmh SW 8.1 mph13.0 kmh 29.26 in990.9 mb 0.00 in0.0 mm 0.00 in0.0 mm 0.00 in0.0 mm
12:49 AM 85.1°F29.5°C 74.7°F23.7°C 71% 2.2 mph WSW3.5 kmh WSW 3.4 mph5.5 kmh 29.26 in990.9 mb 0.00 in0.0 mm 0.00 in0.0 mm 0.00 in0.0 mm
12:44 AM 85.1°F29.5°C 74.7°F23.7°C 71% 3.1 mph WSW5.0 kmh WSW 4.5 mph7.2 kmh 29.26 in990.9 mb 0.00 in0.0 mm 0.00 in0.0 mm 0.00 in0.0 mm
12:39 AM 85.1°F29.5°C 74.3°F23.5°C 70% 5.6 mph WSW9.0 kmh WSW 6.9 mph11.1 kmh 29.26 in990.9 mb 0.00 in0.0 mm 0.00 in0.0 mm 0.00 in0.0 mm
12:34 AM 85.5°F29.7°C 74.7°F23.7°C 70% 2.0 mph SW3.2 kmh SW 2.2 mph3.5 kmh 29.26 in990.9 mb 0.00 in0.0 mm 0.00 in0.0 mm 0.00 in0.0 mm
12:29 AM 85.5°F29.7°C 74.7°F23.7°C 70% 2.9 mph SW4.7 kmh SW 3.4 mph5.5 kmh 29.26 in990.9 mb 0.00 in0.0 mm 0.00 in0.0 mm 0.00 in0.0 mm
12:24 AM 85.6°F29.8°C 74.8°F23.8°C 70% 1.1 mph SW1.8 kmh SW 1.1 mph1.8 kmh 29.25 in990.5 mb 0.00 in0.0 mm 0.00 in0.0 mm 0.00 in0.0 mm
12:19 AM 85.8°F29.9°C 75.0°F23.9°C 70% 2.2 mph SW3.5 kmh SW 3.4 mph5.5 kmh 29.25 in990.5 mb 0.00 in0.0 mm 0.00 in0.0 mm 0.00 in0.0 mm
12:14 AM 86.0°F30.0°C 74.7°F23.7°C 69% 2.0 mph SW3.2 kmh SW 3.4 mph5.5 kmh 29.25 in990.5 mb 0.00 in0.0 mm 0.00 in0.0 mm 0.00 in0.0 mm
12:09 AM 86.0°F30.0°C 74.3°F23.5°C 68% 3.4 mph S5.5 kmh S 4.5 mph7.2 kmh 29.25 in990.5 mb 0.00 in0.0 mm 0.00 in0.0 mm 0.00 in0.0 mm
12:04 AM 86.4°F30.2°C 74.7°F23.7°C 68% 0.7 mph SW1.1 kmh SW 1.1 mph1.8 kmh 29.25 in990.5 mb 0.00 in0.0 mm 0.00 in0.0 mm 0.00 in0.0 mm